ETHF/FRZ METAR and TAF weather

Enter ICAO airport designator
Station Type Date Time Source
ETHF METAR 2018/12/12 04:20 UTC NOAA

ETHF 120420Z 36003KT 9999 BKN015 03/00 Q1023 WHT


Station Type Date Time Source
ETHF Decoded METAR 2018/12/12 04:20 UTC NOAA

Fritzlar, Germany (ETHF) 51-07N 009-17E 181M
Dec 11, 2018 - 11:20 PM EST / 2018.12.12 0420 UTC
Wind: from the N (360 degrees) at 3 MPH (3 KT):0
Visibility: greater than 7 mile(s):0
Sky conditions: mostly cloudy
Temperature: 37 F (3 C)
Dew Point: 32 F (0 C)
Relative Humidity: 80%
Pressure (altimeter): 30.21 in. Hg (1023 hPa)
ob: ETHF 120420Z 36003KT 9999 BKN015 03/00 Q1023 WHT
cycle: 4

Station Type Date Time Source
ETHF TAF 2018/05/18 05:37 UTC NOAA

TAF ETHF 180407Z 1805/1818 35006KT 9999 NSW BKN020
TEMPO 1805/1808 33005KT 9999 NSW BKN012
BECMG 1809/1811 36008KT 9999 NSW SCT030 BKN180


Example: see airport list